Fort Wright, Kentucky
Current Conditions -  °F | °C
As of 9:16 AM on Friday 19 Dec 2014 (Local Time) from KI69 Reporting Station
Overcast Overcast  
Wind Chill: 30°   Ceiling: 1800
Heat Index: 30°   Visibility: 7mi
Dew Point: 27°   Wind: 0mph
Humidity: 86%   Direction: NA
Pressure: 30.29"   Gusts: NA
Location:  39.0659°N, 84.5309°W
Report Text: KI69 191416Z AUTO 00000KT 7SM OVC018 M01/M03 A3029 RMK AO1
Loading
Personal Weather Stations






























Interactive Weather Map New forecast layout! Learn more

10-Day Weather Forecast

Advertisements
Track Severe Weather on mobile